createdAt,value
2019-02-08T00:00:53.695Z,3.10
2019-02-08T00:03:20.177Z,3.00
2019-02-08T00:05:46.694Z,3.40
2019-02-08T00:08:13.210Z,2.97
2019-02-08T00:10:40.401Z,3.37
2019-02-08T00:13:07.139Z,3.20
2019-02-08T00:15:33.551Z,3.40
2019-02-08T00:18:00.000Z,3.00
2019-02-08T00:20:26.411Z,3.03
2019-02-08T00:22:53.076Z,3.13
2019-02-08T00:25:21.431Z,2.60
2019-02-08T00:27:47.927Z,3.27
2019-02-08T00:30:22.510Z,2.70
2019-02-08T00:32:48.925Z,3.40
2019-02-08T00:35:15.678Z,2.27
2019-02-08T00:37:42.131Z,2.90
2019-02-08T00:40:10.343Z,2.90
2019-02-08T00:42:36.759Z,3.40
2019-02-08T00:45:05.404Z,3.03
2019-02-08T00:47:32.120Z,2.90
2019-02-08T00:49:58.563Z,3.63
2019-02-08T00:52:25.312Z,3.20
2019-02-08T00:54:51.727Z,3.40
2019-02-08T00:57:18.177Z,2.77
2019-02-08T00:59:44.919Z,2.73
2019-02-08T01:02:11.328Z,2.97
2019-02-08T01:04:37.780Z,3.33
2019-02-08T01:07:04.530Z,2.50
2019-02-08T01:09:32.235Z,3.07
2019-02-08T01:11:59.025Z,2.80
2019-02-08T01:14:25.439Z,3.13
2019-02-08T01:16:51.857Z,2.80
2019-02-08T01:19:18.627Z,3.63
2019-02-08T01:21:45.045Z,3.27
2019-02-08T01:24:11.461Z,2.93
2019-02-08T01:26:37.908Z,2.93
2019-02-08T01:29:04.329Z,2.83
2019-02-08T01:31:30.789Z,3.10
2019-02-08T01:33:57.285Z,3.17
2019-02-08T01:36:23.959Z,3.50
2019-02-08T01:38:50.403Z,3.23
2019-02-08T01:41:17.137Z,3.03
2019-02-08T01:43:43.868Z,3.30
2019-02-08T01:46:10.607Z,2.63
2019-02-08T01:48:37.024Z,2.93
2019-02-08T01:51:03.472Z,2.77
2019-02-08T01:53:30.211Z,2.37
2019-02-08T01:55:56.732Z,3.17
2019-02-08T01:58:23.191Z,3.03
2019-02-08T02:00:49.602Z,2.60
2019-02-08T02:03:16.052Z,3.23
2019-02-08T02:05:42.502Z,3.23
2019-02-08T02:08:09.015Z,2.77
2019-02-08T02:10:37.258Z,2.87
2019-02-08T02:13:04.947Z,2.70
2019-02-08T02:15:31.396Z,2.80
2019-02-08T02:17:57.811Z,2.90
2019-02-08T02:20:26.166Z,3.13
2019-02-08T02:22:52.571Z,2.73
2019-02-08T02:25:19.000Z,2.93
2019-02-08T02:27:45.431Z,3.07
2019-02-08T02:30:13.740Z,3.10
2019-02-08T02:32:40.196Z,2.60
2019-02-08T02:35:08.511Z,3.00
2019-02-08T02:37:35.212Z,2.73
2019-02-08T02:40:01.762Z,2.40
2019-02-08T02:42:28.203Z,3.07
2019-02-08T02:44:54.616Z,2.70
2019-02-08T02:47:21.041Z,2.90
2019-02-08T02:49:47.557Z,2.90
2019-02-08T02:52:14.515Z,2.80
2019-02-08T02:54:41.261Z,2.60
2019-02-08T02:57:07.711Z,3.83
2019-02-08T02:59:34.430Z,2.80
2019-02-08T03:02:00.845Z,2.73
2019-02-08T03:04:27.323Z,2.30
2019-02-08T03:06:53.942Z,3.17
2019-02-08T03:09:20.671Z,2.40
2019-02-08T03:11:47.406Z,2.50
2019-02-08T03:14:14.153Z,2.80
2019-02-08T03:16:40.567Z,2.90
2019-02-08T03:19:06.980Z,2.80
2019-02-08T03:21:33.773Z,2.70
2019-02-08T03:24:00.223Z,2.77
2019-02-08T03:26:26.631Z,2.33
2019-02-08T03:28:53.355Z,2.30
2019-02-08T03:31:20.125Z,2.23
2019-02-08T03:33:46.616Z,2.70
2019-02-08T03:36:13.044Z,2.30
2019-02-08T03:38:39.904Z,2.70
2019-02-08T03:41:06.315Z,2.30
2019-02-08T03:43:32.737Z,2.20
2019-02-08T03:45:59.512Z,2.80
2019-02-08T03:48:25.924Z,2.70
2019-02-08T03:50:52.340Z,2.80
2019-02-08T03:53:19.111Z,2.40
2019-02-08T03:55:45.528Z,2.67
2019-02-08T03:58:12.283Z,2.13
2019-02-08T04:00:40.604Z,2.30
2019-02-08T04:03:07.297Z,2.17
2019-02-08T04:05:33.780Z,2.90
2019-02-08T04:08:00.198Z,1.90
2019-02-08T04:10:26.647Z,2.40
2019-02-08T04:12:53.060Z,2.33
2019-02-08T04:15:21.109Z,2.23
2019-02-08T04:17:47.520Z,2.43
2019-02-08T04:20:15.032Z,2.30
2019-02-08T04:22:41.475Z,2.50
2019-02-08T04:25:10.104Z,2.20
2019-02-08T04:27:36.553Z,2.10
2019-02-08T04:30:07.929Z,2.20
2019-02-08T04:32:34.377Z,1.70
2019-02-08T04:35:00.817Z,2.20
2019-02-08T04:37:27.227Z,2.43
2019-02-08T04:39:53.671Z,2.10
2019-02-08T04:42:20.097Z,2.00
2019-02-08T04:44:46.541Z,1.77
2019-02-08T04:47:12.962Z,2.30
2019-02-08T04:49:39.408Z,2.10
2019-02-08T04:52:05.821Z,2.17
2019-02-08T04:54:38.171Z,2.50
2019-02-08T04:57:00.584Z,2.20
2019-02-08T04:59:27.000Z,1.80
2019-02-08T05:01:53.412Z,1.90
2019-02-08T05:04:19.857Z,1.70
2019-02-08T05:06:46.308Z,2.10
2019-02-08T05:09:13.069Z,2.20
2019-02-08T05:11:39.600Z,1.93
2019-02-08T05:14:06.017Z,2.37
2019-02-08T05:16:32.491Z,2.07
2019-02-08T05:18:58.899Z,1.80
2019-02-08T05:21:25.351Z,2.93
2019-02-08T05:23:51.766Z,2.10
2019-02-08T05:26:18.180Z,2.10
2019-02-08T05:28:44.628Z,2.03
2019-02-08T05:31:11.351Z,1.80
2019-02-08T05:33:38.089Z,1.60
2019-02-08T05:36:04.539Z,2.63
2019-02-08T05:38:30.943Z,1.90
2019-02-08T05:40:57.692Z,2.10
2019-02-08T05:43:24.107Z,2.30
2019-02-08T05:45:50.863Z,2.07
2019-02-08T05:48:17.317Z,2.00
2019-02-08T05:50:43.732Z,1.70
2019-02-08T05:53:10.147Z,1.60
2019-02-08T05:55:36.978Z,1.80
2019-02-08T05:58:04.587Z,2.00
2019-02-08T06:00:40.858Z,1.90
2019-02-08T06:03:07.566Z,2.00
2019-02-08T06:05:34.614Z,1.67
2019-02-08T06:08:01.151Z,1.77
2019-02-08T06:10:28.612Z,1.73
2019-02-08T06:12:55.343Z,1.80
2019-02-08T06:15:22.192Z,2.00
2019-02-08T06:17:48.604Z,2.00
2019-02-08T06:20:16.921Z,2.27
2019-02-08T06:22:43.645Z,1.87
2019-02-08T06:25:11.495Z,2.23
2019-02-08T06:27:38.609Z,1.87
2019-02-08T06:30:06.929Z,2.00
2019-02-08T06:32:33.371Z,2.40
2019-02-08T06:34:59.887Z,2.00
2019-02-08T06:37:26.338Z,1.60
2019-02-08T06:39:53.160Z,1.47
2019-02-08T06:42:19.579Z,1.90
2019-02-08T06:44:46.019Z,2.30
2019-02-08T06:47:12.760Z,2.17
2019-02-08T06:49:39.211Z,2.00
2019-02-08T06:52:05.629Z,1.87
2019-02-08T06:54:32.364Z,2.13
2019-02-08T06:57:03.935Z,1.63
2019-02-08T06:59:34.991Z,1.80
2019-02-08T07:02:18.408Z,1.63
2019-02-08T07:04:47.076Z,1.87
2019-02-08T07:07:24.463Z,1.53
2019-02-08T07:10:01.661Z,1.83
2019-02-08T07:12:35.779Z,2.03
2019-02-08T07:15:08.742Z,1.77
2019-02-08T07:17:37.088Z,1.70
2019-02-08T07:20:16.255Z,1.80
2019-02-08T07:23:00.895Z,1.80
2019-02-08T07:25:29.317Z,1.30
2019-02-08T07:28:00.492Z,1.77
2019-02-08T07:30:36.155Z,1.90
2019-02-08T07:33:13.776Z,1.97
2019-02-08T07:35:54.211Z,1.73
2019-02-08T07:38:22.820Z,1.70
2019-02-08T07:40:54.267Z,1.83
2019-02-08T07:43:25.491Z,1.80
2019-02-08T07:45:53.812Z,1.60
2019-02-08T07:48:29.610Z,2.30
2019-02-08T07:50:58.840Z,1.83
2019-02-08T07:53:29.839Z,2.20
2019-02-08T07:56:07.277Z,2.23
2019-02-08T07:58:52.247Z,2.20
2019-02-08T08:01:26.459Z,2.20
2019-02-08T08:04:03.750Z,2.10
2019-02-08T08:06:32.066Z,2.00
2019-02-08T08:09:19.952Z,2.10
2019-02-08T08:11:57.546Z,1.83
2019-02-08T08:14:32.068Z,2.23
2019-02-08T08:17:06.015Z,1.93
2019-02-08T08:19:34.655Z,2.27
2019-02-08T08:22:18.083Z,2.27
2019-02-08T08:24:58.754Z,2.13
2019-02-08T08:27:29.995Z,2.10
2019-02-08T08:29:58.316Z,1.87
2019-02-08T08:32:26.963Z,2.00
2019-02-08T08:34:55.279Z,2.00
2019-02-08T08:37:26.686Z,2.00
2019-02-08T08:40:06.987Z,2.00
2019-02-08T08:42:47.449Z,2.40
2019-02-08T08:45:15.796Z,2.17
2019-02-08T08:47:44.360Z,2.20
2019-02-08T08:50:29.255Z,2.00
2019-02-08T08:53:00.604Z,2.00
2019-02-08T08:55:41.803Z,2.13
2019-02-08T08:58:05.315Z,1.93
2019-02-08T09:00:36.652Z,2.00
2019-02-08T09:03:21.643Z,1.87
2019-02-08T09:06:08.533Z,2.27
2019-02-08T09:08:40.304Z,2.10
2019-02-08T09:11:17.475Z,2.30
2019-02-08T09:13:54.640Z,1.70
2019-02-08T09:16:41.575Z,2.40
2019-02-08T09:19:26.647Z,2.00
2019-02-08T09:22:07.223Z,2.50
2019-02-08T09:24:44.924Z,2.23
2019-02-08T09:27:16.561Z,2.00
2019-02-08T09:30:03.192Z,2.60
2019-02-08T09:32:34.544Z,2.30
2019-02-08T09:35:05.635Z,2.17
2019-02-08T09:37:50.739Z,2.20
2019-02-08T09:40:25.131Z,2.00
2019-02-08T09:42:53.487Z,2.23
2019-02-08T09:45:28.248Z,1.90
2019-02-08T09:47:56.831Z,2.07
2019-02-08T09:50:27.949Z,2.27
2019-02-08T09:52:56.260Z,2.30
2019-02-08T09:55:36.811Z,1.83
2019-02-08T09:58:17.143Z,2.60
2019-02-08T10:01:03.555Z,2.17
2019-02-08T10:03:48.628Z,2.27
2019-02-08T10:06:20.005Z,1.97
2019-02-08T10:09:00.861Z,2.30
2019-02-08T10:11:45.980Z,2.13
2019-02-08T10:14:20.440Z,2.20
2019-02-08T10:17:01.217Z,2.10
2019-02-08T10:19:38.480Z,2.10
2019-02-08T10:22:23.404Z,2.00
2019-02-08T10:24:51.757Z,2.00
2019-02-08T10:27:32.256Z,2.50
2019-02-08T10:30:00.907Z,2.07
2019-02-08T10:32:29.228Z,2.70
2019-02-08T10:35:14.321Z,2.30
2019-02-08T10:37:59.451Z,2.40
2019-02-08T10:40:44.661Z,1.90
2019-02-08T10:43:29.856Z,2.10
2019-02-08T10:46:15.128Z,1.70
2019-02-08T10:48:58.847Z,1.97
2019-02-08T10:51:42.402Z,2.03
2019-02-08T10:54:16.817Z,1.83
2019-02-08T10:57:01.803Z,2.33
2019-02-08T10:59:30.120Z,2.17
2019-02-08T11:01:58.472Z,1.60
2019-02-08T11:04:32.560Z,2.33
2019-02-08T11:07:03.903Z,1.80
2019-02-08T11:09:50.297Z,1.90
2019-02-08T11:12:37.207Z,1.93
2019-02-08T11:15:11.329Z,2.10
2019-02-08T11:17:58.231Z,2.23
2019-02-08T11:20:24.983Z,1.83
2019-02-08T11:22:51.398Z,1.83
2019-02-08T11:25:17.847Z,2.00
2019-02-08T11:27:44.265Z,2.00
2019-02-08T11:30:12.851Z,1.80
2019-02-08T11:32:43.370Z,1.60
2019-02-08T11:35:08.891Z,1.90
2019-02-08T11:37:35.664Z,1.80
2019-02-08T11:40:04.215Z,1.53
2019-02-08T11:42:30.662Z,1.60
2019-02-08T11:44:57.379Z,1.50
2019-02-08T11:47:23.825Z,1.60
2019-02-08T11:49:50.248Z,1.87
2019-02-08T11:52:16.987Z,2.17
2019-02-08T11:54:43.395Z,2.00
2019-02-08T11:57:10.059Z,1.57
2019-02-08T11:59:36.509Z,1.77
2019-02-08T12:02:03.356Z,1.63
2019-02-08T12:04:29.781Z,1.40
2019-02-08T12:06:56.190Z,1.80
2019-02-08T12:09:22.635Z,1.43
2019-02-08T12:11:49.080Z,1.90
2019-02-08T12:14:15.527Z,1.90
2019-02-08T12:16:41.942Z,1.67
2019-02-08T12:19:08.659Z,2.23
2019-02-08T12:21:35.136Z,1.60
2019-02-08T12:24:01.831Z,1.80
2019-02-08T12:26:28.983Z,1.70
2019-02-08T12:28:55.395Z,1.50
2019-02-08T12:31:21.812Z,1.70
2019-02-08T12:33:48.261Z,1.20
2019-02-08T12:36:15.015Z,1.30
2019-02-08T12:38:42.347Z,1.23
2019-02-08T12:41:10.035Z,1.70
2019-02-08T12:43:37.691Z,2.17
2019-02-08T12:46:04.146Z,1.57
2019-02-08T12:48:30.871Z,2.00
2019-02-08T12:50:57.627Z,1.70
2019-02-08T12:53:24.344Z,1.57
2019-02-08T12:55:51.083Z,1.80
2019-02-08T12:58:17.819Z,1.50
2019-02-08T13:00:44.274Z,1.27
2019-02-08T13:03:10.775Z,1.50
2019-02-08T13:05:37.188Z,1.40
2019-02-08T13:08:03.640Z,1.80
2019-02-08T13:10:30.053Z,1.43
2019-02-08T13:12:56.497Z,1.67
2019-02-08T13:15:22.947Z,1.57
2019-02-08T13:17:49.363Z,1.37
2019-02-08T13:20:19.789Z,1.60
2019-02-08T13:22:46.201Z,1.30
2019-02-08T13:25:14.004Z,1.50
2019-02-08T13:27:40.452Z,1.63
2019-02-08T13:30:08.803Z,1.37
2019-02-08T13:32:35.556Z,1.37
2019-02-08T13:35:02.663Z,1.10
2019-02-08T13:37:29.446Z,1.60
2019-02-08T13:39:55.858Z,1.70
2019-02-08T13:42:22.267Z,1.27
2019-02-08T13:44:49.057Z,1.53
2019-02-08T13:47:15.467Z,1.40
2019-02-08T13:49:42.216Z,1.13
2019-02-08T13:52:08.963Z,1.33
2019-02-08T13:54:35.380Z,1.30
2019-02-08T13:57:02.131Z,1.33
2019-02-08T13:59:28.863Z,1.40
2019-02-08T14:01:55.604Z,1.20
2019-02-08T14:04:22.051Z,1.47
2019-02-08T14:06:48.776Z,1.50
2019-02-08T14:09:15.517Z,1.50
2019-02-08T14:11:42.255Z,1.57
2019-02-08T14:14:08.712Z,1.60
2019-02-08T14:16:35.156Z,1.03
2019-02-08T14:19:01.859Z,1.20
2019-02-08T14:21:28.604Z,1.90
2019-02-08T14:23:55.340Z,1.87
2019-02-08T14:26:22.083Z,1.80
2019-02-08T14:28:48.495Z,2.10
2019-02-08T14:31:14.939Z,2.27
2019-02-08T14:33:41.357Z,1.70
2019-02-08T14:36:08.688Z,2.13
2019-02-08T14:38:35.659Z,2.17
2019-02-08T14:41:02.616Z,2.20
2019-02-08T14:43:29.033Z,1.87
2019-02-08T14:45:55.448Z,10.97
2019-02-08T14:48:21.894Z,4.60
2019-02-08T14:50:48.546Z,4.27
2019-02-08T14:53:14.963Z,4.40
2019-02-08T14:55:41.407Z,3.70
2019-02-08T14:58:07.828Z,3.90
2019-02-08T15:00:34.589Z,4.40
2019-02-08T15:03:01.328Z,4.50
2019-02-08T15:05:27.842Z,4.80
2019-02-08T15:07:54.597Z,3.93
2019-02-08T15:10:22.423Z,4.73
2019-02-08T15:12:49.104Z,5.23
2019-02-08T15:15:15.583Z,4.27
2019-02-08T15:17:42.043Z,5.63
2019-02-08T15:20:13.155Z,4.27
2019-02-08T15:22:39.560Z,5.20
2019-02-08T15:25:07.111Z,4.23
2019-02-08T15:27:33.524Z,4.90
2019-02-08T15:29:59.939Z,4.93
2019-02-08T15:32:26.702Z,4.87
2019-02-08T15:34:53.439Z,4.57
2019-02-08T15:37:19.859Z,4.27
2019-02-08T15:39:46.615Z,4.53
2019-02-08T15:42:13.169Z,4.30
2019-02-08T15:44:39.684Z,3.90
2019-02-08T15:47:06.523Z,4.30
2019-02-08T15:49:33.271Z,4.17
2019-02-08T15:51:59.693Z,4.30
2019-02-08T15:54:26.112Z,3.60
2019-02-08T15:56:52.563Z,4.00
2019-02-08T15:59:19.008Z,3.87
2019-02-08T16:01:45.737Z,3.90
2019-02-08T16:04:12.163Z,4.10
2019-02-08T16:06:38.616Z,3.50
2019-02-08T16:09:06.932Z,4.10
2019-02-08T16:11:33.385Z,3.67
2019-02-08T16:14:00.155Z,3.63
2019-02-08T16:16:26.592Z,4.10
2019-02-08T16:18:53.041Z,5.90
2019-02-08T16:21:19.456Z,4.20
2019-02-08T16:23:45.870Z,4.43
2019-02-08T16:26:12.616Z,4.30
2019-02-08T16:28:39.351Z,4.40
2019-02-08T16:31:05.819Z,4.20
2019-02-08T16:33:32.223Z,3.80
2019-02-08T16:35:58.635Z,3.80
2019-02-08T16:38:25.088Z,4.20
2019-02-08T16:40:51.497Z,4.63
2019-02-08T16:43:18.156Z,4.03
2019-02-08T16:45:44.936Z,4.60
2019-02-08T16:48:12.557Z,4.00
2019-02-08T16:50:39.975Z,4.13
2019-02-08T16:53:07.524Z,3.40
2019-02-08T16:55:33.940Z,4.23
2019-02-08T16:58:00.359Z,4.47
2019-02-08T17:00:31.168Z,3.87
2019-02-08T17:02:59.390Z,4.07
2019-02-08T17:05:27.103Z,4.23
2019-02-08T17:07:53.846Z,4.07
2019-02-08T17:10:20.262Z,4.47
2019-02-08T17:12:47.131Z,4.20
2019-02-08T17:15:15.479Z,4.17
2019-02-08T17:17:41.924Z,4.30
2019-02-08T17:20:10.243Z,3.93
2019-02-08T17:22:36.692Z,4.77
2019-02-08T17:25:03.610Z,4.70
2019-02-08T17:27:30.027Z,5.37
2019-02-08T17:29:56.747Z,5.80
2019-02-08T17:32:23.488Z,4.90
2019-02-08T17:34:49.946Z,6.23
2019-02-08T17:37:16.351Z,5.63
2019-02-08T17:39:42.800Z,5.77
2019-02-08T17:42:09.524Z,5.70
2019-02-08T17:44:36.264Z,6.43
2019-02-08T17:47:03.046Z,6.80
2019-02-08T17:49:29.515Z,6.40
2019-02-08T17:51:56.277Z,7.20
2019-02-08T17:54:25.790Z,6.70
2019-02-08T17:56:51.048Z,7.40
2019-02-08T17:59:17.720Z,6.67
2019-02-08T18:01:44.137Z,7.20
2019-02-08T18:04:10.588Z,7.27
2019-02-08T18:06:37.323Z,7.07
2019-02-08T18:09:05.635Z,7.97
2019-02-08T18:11:32.339Z,6.83
2019-02-08T18:13:58.751Z,7.80
2019-02-08T18:16:25.411Z,7.33
2019-02-08T18:18:52.148Z,7.90
2019-02-08T18:21:18.887Z,7.77
2019-02-08T18:23:45.304Z,8.47
2019-02-08T18:26:12.059Z,13.60
2019-02-08T18:28:38.477Z,16.80
2019-02-08T18:31:04.927Z,18.07
2019-02-08T18:33:31.342Z,16.90
2019-02-08T18:35:57.751Z,13.87
2019-02-08T18:38:24.195Z,13.90
2019-02-08T18:40:50.608Z,14.00
2019-02-08T18:43:17.291Z,13.60
2019-02-08T18:45:44.136Z,13.47
2019-02-08T18:48:10.871Z,12.83
2019-02-08T18:50:38.748Z,13.73
2019-02-08T18:53:06.060Z,12.63
2019-02-08T18:55:32.473Z,12.90
2019-02-08T18:57:58.925Z,12.33
2019-02-08T19:00:27.539Z,12.47
2019-02-08T19:02:53.959Z,12.47
2019-02-08T19:05:21.444Z,11.20
2019-02-08T19:07:47.860Z,11.47
2019-02-08T19:10:16.543Z,10.70
2019-02-08T19:12:42.955Z,10.70
2019-02-08T19:15:11.180Z,9.90
2019-02-08T19:17:37.675Z,10.97
2019-02-08T19:20:06.059Z,10.50
2019-02-08T19:22:32.467Z,10.50
2019-02-08T19:24:58.919Z,10.07
2019-02-08T19:27:25.332Z,10.50
2019-02-08T19:29:51.788Z,10.43
2019-02-08T19:32:18.199Z,11.00
2019-02-08T19:34:44.616Z,9.20
2019-02-08T19:37:11.391Z,10.07
2019-02-08T19:39:38.131Z,9.27
2019-02-08T19:42:04.543Z,9.97
2019-02-08T19:44:30.958Z,9.43
2019-02-08T19:46:57.739Z,9.30
2019-02-08T19:49:24.161Z,9.80
2019-02-08T19:51:50.576Z,8.90
2019-02-08T19:54:17.048Z,9.50
2019-02-08T19:56:43.772Z,8.50
2019-02-08T19:59:10.227Z,8.50
2019-02-08T20:01:36.639Z,8.80
2019-02-08T20:04:03.481Z,9.20
2019-02-08T20:06:29.957Z,8.97
2019-02-08T20:08:56.367Z,8.73
2019-02-08T20:11:23.086Z,9.23
2019-02-08T20:13:49.540Z,9.43
2019-02-08T20:16:16.007Z,8.37
2019-02-08T20:18:42.478Z,8.03
2019-02-08T20:21:08.940Z,8.23
2019-02-08T20:23:35.364Z,9.00
2019-02-08T20:26:01.779Z,7.90
2019-02-08T20:28:28.227Z,8.90
2019-02-08T20:30:54.639Z,8.80
2019-02-08T20:33:21.381Z,7.77
2019-02-08T20:35:48.120Z,8.70
2019-02-08T20:38:14.869Z,8.63
2019-02-08T20:40:42.780Z,8.10
2019-02-08T20:43:09.191Z,8.43
2019-02-08T20:45:36.659Z,7.97
2019-02-08T20:48:08.012Z,7.83
2019-02-08T20:50:34.706Z,7.40
2019-02-08T20:53:02.155Z,7.50
2019-02-08T20:55:28.566Z,7.13
2019-02-08T20:57:55.328Z,6.90
2019-02-08T21:00:25.392Z,7.17
2019-02-08T21:02:52.192Z,6.87
2019-02-08T21:05:18.660Z,7.17
2019-02-08T21:07:45.091Z,8.40
2019-02-08T21:10:11.512Z,7.27
2019-02-08T21:12:37.928Z,10.00
2019-02-08T21:15:06.522Z,7.43
2019-02-08T21:17:33.544Z,8.17
2019-02-08T21:20:00.731Z,8.67
2019-02-08T21:22:27.144Z,8.57
2019-02-08T21:24:53.578Z,7.07
2019-02-08T21:27:20.025Z,8.43
2019-02-08T21:29:46.736Z,8.40
2019-02-08T21:32:13.471Z,7.67
2019-02-08T21:34:39.916Z,6.33
2019-02-08T21:37:06.651Z,6.77
2019-02-08T21:39:33.099Z,7.43
2019-02-08T21:41:59.534Z,7.50
2019-02-08T21:44:26.246Z,7.27
2019-02-08T21:46:52.984Z,7.10
2019-02-08T21:49:19.724Z,7.00
2019-02-08T21:51:46.465Z,7.50
2019-02-08T21:54:13.203Z,7.80
2019-02-08T21:56:39.945Z,7.47
2019-02-08T21:59:06.693Z,7.00
2019-02-08T22:01:33.419Z,6.40
2019-02-08T22:03:59.837Z,6.63
2019-02-08T22:06:26.487Z,6.43
2019-02-08T22:08:52.931Z,6.37
2019-02-08T22:11:19.660Z,7.23
2019-02-08T22:13:46.107Z,6.73
2019-02-08T22:16:12.831Z,6.77
2019-02-08T22:18:39.572Z,7.30
2019-02-08T22:21:06.056Z,7.10
2019-02-08T22:23:32.463Z,6.87
2019-02-08T22:25:58.907Z,7.10
2019-02-08T22:28:25.607Z,6.30
2019-02-08T22:30:52.029Z,6.60
2019-02-08T22:33:18.476Z,6.70
2019-02-08T22:35:45.211Z,6.50
2019-02-08T22:38:11.628Z,6.40
2019-02-08T22:40:38.394Z,5.80
2019-02-08T22:43:05.991Z,6.50
2019-02-08T22:45:39.628Z,6.43
2019-02-08T22:48:06.383Z,7.03
2019-02-08T22:50:33.127Z,6.60
2019-02-08T22:52:59.579Z,5.77
2019-02-08T22:55:30.611Z,5.97
2019-02-08T22:57:57.034Z,6.80
2019-02-08T23:00:39.535Z,6.97
2019-02-08T23:03:09.251Z,6.77
2019-02-08T23:05:35.698Z,6.80
2019-02-08T23:08:02.113Z,6.50
2019-02-08T23:10:28.847Z,6.57
2019-02-08T23:12:55.291Z,6.73
2019-02-08T23:15:21.734Z,6.50
2019-02-08T23:17:48.147Z,5.80
2019-02-08T23:20:14.975Z,7.10
2019-02-08T23:22:41.436Z,5.80
2019-02-08T23:25:07.851Z,5.90
2019-02-08T23:27:34.269Z,6.40
2019-02-08T23:30:00.722Z,5.47
2019-02-08T23:32:27.131Z,6.40
2019-02-08T23:34:53.593Z,7.13
2019-02-08T23:37:25.862Z,6.30
2019-02-08T23:39:48.328Z,5.73
2019-02-08T23:42:14.781Z,6.23
2019-02-08T23:44:41.472Z,6.07
2019-02-08T23:47:07.888Z,6.40
2019-02-08T23:49:34.337Z,6.10
2019-02-08T23:52:00.772Z,6.67
2019-02-08T23:54:27.228Z,6.07
2019-02-08T23:56:53.645Z,6.63
2019-02-08T23:59:20.057Z,6.30
